Time;durP1;ratioP1;P1;durP2;ratioP2;P2;SDS_P1;SDS_P2;PMS_P1;PMS_P2;Temp;Humidity;BMP_temperature;BMP_pressure;BME280_temperature;BME280_humidity;BME280_pressure;Samples;Min_cycle;Max_cycle;Signal;HPM_P1;HPM_P2
2021/12/24 20:30:20;;;;;;;;;;;8.10;99.90;;;;;;5151173;27;19911;-70
2021/12/24 20:32:46;;;;;;;;;;;8.10;99.90;;;;;;5133496;27;20378;-70
2021/12/24 20:35:11;;;;;;;;;;;8.10;99.90;;;;;;5151114;27;19911;-70
2021/12/24 20:37:37;;;;;;;;;;;8.00;99.90;;;;;;5151667;27;19908;-70
2021/12/24 20:40:03;;;;;;;;;;;8.10;99.90;;;;;;5132748;27;19914;-70
2021/12/24 20:42:29;;;;;;;;;;;8.10;99.90;;;;;;5151208;27;19912;-70
2021/12/24 20:44:56;;;;;;;;;;;8.00;99.90;;;;;;5151823;27;20013;-70
2021/12/24 20:47:23;;;;;;;;;;;8.00;99.90;;;;;;5151195;27;20367;-70
2021/12/24 20:49:49;;;;;;;;;;;8.00;99.90;;;;;;5151439;27;19923;-70
2021/12/24 20:52:14;;;;;;;;;;;;;;;;;;5151121;27;19953;-70
2021/12/24 20:54:40;;;;;;;;;;;;;;;;;;5151638;27;20279;-70
2021/12/24 20:57:06;;;;;;;;;;;8.10;99.90;;;;;;5151576;27;19993;-70
2021/12/24 20:59:32;;;;;;;;;;;;;;;;;;5150961;27;19908;-70
2021/12/24 21:01:57;;;;;;;;;;;8.10;99.90;;;;;;5150786;27;20431;-70
2021/12/24 21:04:23;;;;;;;;;;;8.10;99.90;;;;;;5150022;27;19914;-70
2021/12/24 21:06:48;;;;;;;;;;;8.10;99.90;;;;;;5151039;27;19998;-70
2021/12/24 21:09:14;;;;;;;;;;;8.10;99.90;;;;;;5150544;27;19916;-70
2021/12/24 21:11:42;;;;;;;;;;;8.10;99.90;;;;;;5132791;27;19915;-70
2021/12/24 21:14:09;;;;;;;;;;;8.10;99.90;;;;;;5130696;28;19998;-70
2021/12/24 21:16:34;;;;;;;;;;;8.00;99.90;;;;;;5129966;28;20006;-70
2021/12/24 21:19:00;;;;;;;;;;;8.00;99.90;;;;;;5130531;28;20432;-70
2021/12/24 21:21:25;;;;;;;;;;;8.00;99.90;;;;;;5129919;28;19914;-70
2021/12/24 21:23:58;;;;;;;;;;;8.00;99.90;;;;;;5130422;28;20275;-70
2021/12/24 21:26:24;;;;;;;;;;;8.10;99.90;;;;;;5129833;28;20039;-70
2021/12/24 21:28:49;;;;;;;;;;;8.10;99.90;;;;;;5130258;28;19919;-70
2021/12/24 21:31:15;;;;;;;;;;;8.10;99.90;;;;;;5129664;28;19957;-70
2021/12/24 21:33:40;;;;;;;;;;;8.10;99.90;;;;;;5130030;28;19961;-70
2021/12/24 21:36:06;;;;;;;;;;;8.10;99.90;;;;;;5130290;28;19911;-70
2021/12/24 21:38:31;;;;;;;;;;;8.10;99.90;;;;;;5129224;28;20138;-70
2021/12/24 21:40:57;;;;;;;;;;;8.10;99.90;;;;;;5129814;27;19912;-70
2021/12/24 21:43:22;;;;;;;;;;;8.00;99.90;;;;;;5136031;27;20359;-70
2021/12/24 21:45:48;;;;;;;;;;;8.00;99.90;;;;;;5136953;27;19970;-70
2021/12/24 21:48:18;;;;;;;;;;;8.00;99.90;;;;;;5136261;27;20363;-71
2021/12/24 21:50:44;;;;;;;;;;;8.00;99.90;;;;;;5136829;27;19911;-70
2021/12/24 21:53:10;;;;;;;;;;;8.10;99.90;;;;;;5136755;27;19912;-70
2021/12/24 21:55:36;;;;;;;;;;;8.10;99.90;;;;;;5116567;27;19910;-70
2021/12/24 21:58:07;;;;;;;;;;;8.10;99.90;;;;;;5136144;27;19915;-70
2021/12/24 22:00:33;;;;;;;;;;;8.10;99.90;;;;;;5136095;27;19918;-70
2021/12/24 22:08:25;;;;;;;;;;;8.00;99.90;;;;;;5135885;27;19912;-70
2021/12/24 22:10:54;;;;;;;;;;;8.00;99.90;;;;;;5117669;27;19934;-70
2021/12/24 22:13:20;;;;;;;;;;;8.00;99.90;;;;;;5135848;27;20308;-70
2021/12/24 22:15:45;;;;;;;;;;;8.00;99.90;;;;;;5135980;27;19960;-70
2021/12/24 22:18:11;;;;;;;;;;;8.10;99.90;;;;;;5136249;27;19911;-70
2021/12/24 22:20:37;;;;;;;;;;;8.10;99.90;;;;;;5135610;27;19907;-70
2021/12/24 22:23:04;;;;;;;;;;;8.10;99.90;;;;;;5136116;27;20347;-70
2021/12/24 22:25:29;;;;;;;;;;;;;;;;;;5117177;27;19907;-70
2021/12/24 22:27:55;;;;;;;;;;;8.10;99.90;;;;;;5135846;27;19971;-70
2021/12/24 22:30:20;;;;;;;;;;;8.00;99.90;;;;;;5135439;27;19918;-70
2021/12/24 22:32:47;;;;;;;;;;;8.00;99.90;;;;;;5136024;27;19930;-70
2021/12/24 22:35:14;;;;;;;;;;;8.10;99.90;;;;;;5135992;27;20006;-70
2021/12/24 22:37:39;;;;;;;;;;;8.00;99.90;;;;;;5135060;27;20422;-70
2021/12/24 22:40:08;;;;;;;;;;;8.10;99.90;;;;;;5129771;27;20004;-70
2021/12/24 22:42:34;;;;;;;;;;;8.20;99.90;;;;;;5114387;28;20379;-70
2021/12/24 22:45:00;;;;;;;;;;;8.10;99.90;;;;;;5097000;28;19965;-70
2021/12/24 22:47:26;;;;;;;;;;;8.00;99.90;;;;;;5114634;28;20340;-70
2021/12/24 22:49:52;;;;;;;;;;;7.90;99.90;;;;;;5114944;28;19926;-70
2021/12/24 22:52:38;;;;;;;;;;;7.90;99.90;;;;;;5113462;28;19994;-70
2021/12/24 22:55:04;;;;;;;;;;;7.90;99.90;;;;;;5114596;28;19939;-70
2021/12/24 22:57:30;;;;;;;;;;;7.90;99.90;;;;;;5114266;28;20002;-70
2021/12/24 22:59:55;;;;;;;;;;;7.90;99.90;;;;;;5114971;28;19958;-70
2021/12/24 23:02:21;;;;;;;;;;;7.90;99.90;;;;;;5114233;28;20141;-70
2021/12/24 23:04:46;;;;;;;;;;;7.90;99.90;;;;;;5114617;28;19915;-70
2021/12/24 23:07:12;;;;;;;;;;;7.90;99.90;;;;;;5114754;28;20003;-70
2021/12/24 23:09:37;;;;;;;;;;;7.90;99.90;;;;;;5118699;27;19923;-70
2021/12/24 23:12:05;;;;;;;;;;;7.90;99.90;;;;;;5134947;27;19911;-70
2021/12/24 23:14:30;;;;;;;;;;;7.90;99.90;;;;;;5134611;27;19930;-70
2021/12/24 23:16:59;;;;;;;;;;;7.90;99.90;;;;;;5135111;27;20355;-70
2021/12/24 23:19:25;;;;;;;;;;;7.90;99.90;;;;;;5134456;27;19915;-70
2021/12/24 23:21:51;;;;;;;;;;;8.00;99.90;;;;;;5135168;27;19914;-70
2021/12/24 23:24:17;;;;;;;;;;;8.00;99.90;;;;;;5134646;27;20274;-70
2021/12/24 23:26:43;;;;;;;;;;;7.90;99.90;;;;;;5134335;27;20006;-70
2021/12/24 23:29:09;;;;;;;;;;;7.90;99.90;;;;;;5134732;27;19926;-70
2021/12/24 23:31:35;;;;;;;;;;;8.00;99.90;;;;;;5134295;27;19915;-70
2021/12/24 23:34:01;;;;;;;;;;;8.10;99.90;;;;;;5134777;27;19915;-70
2021/12/24 23:36:27;;;;;;;;;;;8.10;99.90;;;;;;5134059;27;19931;-70
2021/12/24 23:38:52;;;;;;;;;;;8.10;99.90;;;;;;5134060;27;20386;-70
2021/12/24 23:41:18;;;;;;;;;;;8.00;99.90;;;;;;5114881;28;20260;-70
2021/12/24 23:43:50;;;;;;;;;;;8.00;99.90;;;;;;5113457;28;19912;-70
2021/12/24 23:48:50;;;;;;;;;;;8.00;99.90;;;;;;5114112;28;19912;-70
2021/12/24 23:51:18;;;;;;;;;;;7.90;99.90;;;;;;5095612;28;19961;-70
2021/12/24 23:53:44;;;;;;;;;;;7.70;99.90;;;;;;5113343;28;19925;-69
2021/12/24 23:56:10;;;;;;;;;;;7.40;99.90;;;;;;5113858;28;20337;-70
2021/12/24 23:58:38;;;;;;;;;;;7.30;99.90;;;;;;5112945;28;19957;-70
